Time;durP1;ratioP1;P1;durP2;ratioP2;P2;SDS_P1;SDS_P2;PMS_P1;PMS_P2;Temp;Humidity;BMP_temperature;BMP_pressure;BME280_temperature;BME280_humidity;BME280_pressure;Samples;Min_cycle;Max_cycle;Signal;HPM_P1;HPM_P2
2023/05/19 00:01:00;;;;;;;2.15;1.58;;;21.70;52.50;;;;;;4989773;28;20619;-67
2023/05/19 00:03:25;;;;;;;3.15;2.05;;;21.60;52.40;;;;;;5003892;28;20104;-67
2023/05/19 00:05:52;;;;;;;3.55;1.80;;;21.60;52.40;;;;;;4996846;28;20113;-66
2023/05/19 00:08:19;;;;;;;2.20;1.70;;;21.60;52.50;;;;;;4992451;28;20404;-66
2023/05/19 00:10:44;;;;;;;4.20;2.17;;;21.60;52.50;;;;;;4993431;28;20354;-66
2023/05/19 00:13:10;;;;;;;2.45;1.95;;;21.60;52.50;;;;;;5000558;28;20030;-67
2023/05/19 00:15:36;;;;;;;2.10;1.55;;;21.60;52.50;;;;;;4998745;28;20034;-65
2023/05/19 00:18:01;;;;;;;2.88;2.08;;;21.60;52.50;;;;;;4998224;28;20436;-65
2023/05/19 00:20:27;;;;;;;2.38;1.60;;;21.60;52.50;;;;;;4996688;28;20034;-65
2023/05/19 00:22:52;;;;;;;2.65;1.98;;;21.60;52.50;;;;;;4996862;28;20034;-68
2023/05/19 00:25:18;;;;;;;2.33;1.65;;;21.60;52.50;;;;;;4996213;28;20480;-67
2023/05/19 00:27:43;;;;;;;3.05;1.83;;;21.60;52.60;;;;;;4995530;28;20244;-66
2023/05/19 00:30:09;;;;;;;2.65;1.63;;;21.60;52.70;;;;;;4994876;28;20385;-65
2023/05/19 00:32:35;;;;;;;2.30;2.10;;;21.60;52.70;;;;;;4993952;28;20034;-67
2023/05/19 00:35:00;;;;;;;2.50;1.55;;;21.60;52.70;;;;;;4993736;28;20038;-66
2023/05/19 00:37:26;;;;;;;2.97;1.77;;;21.60;52.60;;;;;;4994588;28;20567;-67
2023/05/19 00:39:52;;;;;;;2.22;1.90;;;21.60;52.70;;;;;;4994396;28;20053;-67
2023/05/19 00:42:19;;;;;;;2.72;1.83;;;21.50;52.60;;;;;;5000264;28;20056;-67
2023/05/19 00:44:44;;;;;;;2.97;1.55;;;21.60;52.80;;;;;;4999188;28;20122;-66
2023/05/19 00:47:10;;;;;;;3.40;1.80;;;21.50;52.70;;;;;;4999966;28;20173;-67
2023/05/19 00:49:35;;;;;;;3.00;1.70;;;21.50;52.70;;;;;;4998630;28;20031;-67
2023/05/19 00:52:01;;;;;;;3.47;2.13;;;21.50;52.70;;;;;;4996679;28;20500;-66
2023/05/19 00:54:27;;;;;;;3.03;1.60;;;21.50;52.70;;;;;;4997209;28;20035;-64
2023/05/19 00:56:54;;;;;;;3.13;1.55;;;21.50;52.70;;;;;;4995117;28;20029;-67
2023/05/19 00:59:20;;;;;;;3.47;2.22;;;21.50;52.70;;;;;;4994189;28;20050;-64
2023/05/19 01:01:47;;;;;;;2.85;1.58;;;21.50;53.30;;;;;;4997987;28;20033;-67
2023/05/19 01:04:15;;;;;;;4.10;1.92;;;21.50;52.70;;;;;;4998810;28;20029;-66
2023/05/19 01:06:42;;;;;;;1.77;1.55;;;21.50;52.70;;;;;;4998934;28;20413;-68
2023/05/19 01:09:07;;;;;;;2.08;1.63;;;21.50;52.70;;;;;;5004178;28;20172;-67
2023/05/19 01:11:33;;;;;;;3.30;1.88;;;21.50;52.70;;;;;;5003548;28;20133;-66
2023/05/19 01:13:59;;;;;;;2.40;1.70;;;21.40;52.70;;;;;;5000925;28;20504;-66
2023/05/19 01:16:32;;;;;;;2.70;1.48;;;21.40;52.70;;;;;;5001397;28;20041;-65
2023/05/19 01:19:42;;;;;;;2.03;1.42;;;21.40;52.70;;;;;;5000177;28;20116;-65
2023/05/19 01:22:37;;;;;;;2.78;1.67;;;21.40;52.70;;;;;;4998791;28;20516;-66
2023/05/19 01:25:43;;;;;;;2.17;1.50;;;21.40;52.70;;;;;;4997726;28;20380;-67
2023/05/19 01:28:31;;;;;;;2.28;1.58;;;21.40;52.70;;;;;;4998589;28;20027;-68
2023/05/19 01:30:59;;;;;;;2.10;1.70;;;21.40;52.70;;;;;;4997247;28;20022;-67
2023/05/19 01:33:27;;;;;;;2.58;1.60;;;21.40;52.70;;;;;;4998146;28;20451;-67
2023/05/19 01:35:54;;;;;;;2.78;1.60;;;21.40;52.80;;;;;;5001953;28;20126;-68
2023/05/19 01:38:20;;;;;;;3.10;1.73;;;21.40;52.70;;;;;;5002095;28;20141;-67
2023/05/19 01:40:48;;;;;;;1.98;1.67;;;21.40;52.80;;;;;;4999601;28;20057;-67
2023/05/19 01:43:19;;;;;;;2.53;1.52;;;21.40;52.80;;;;;;5002860;28;20126;-67
2023/05/19 01:45:45;;;;;;;1.95;1.60;;;21.40;52.80;;;;;;5001527;28;20230;-65
2023/05/19 01:48:12;;;;;;;1.83;1.30;;;21.40;52.80;;;;;;5000172;28;20531;-66
2023/05/19 01:50:39;;;;;;;2.85;1.50;;;21.30;52.80;;;;;;4999249;28;20095;-66
2023/05/19 01:53:04;;;;;;;3.53;1.50;;;21.40;52.90;;;;;;5000713;28;20030;-66
2023/05/19 01:55:30;;;;;;;2.05;1.38;;;21.40;52.90;;;;;;4999653;28;20029;-66
2023/05/19 01:58:08;;;;;;;3.55;1.40;;;21.30;52.80;;;;;;4997678;28;20030;-64
2023/05/19 02:00:50;;;;;;;1.85;1.20;;;21.30;52.90;;;;;;4997599;28;20037;-67
2023/05/19 02:03:48;;;;;;;2.17;1.80;;;21.30;52.90;;;;;;4996398;28;20472;-67
2023/05/19 02:06:22;;;;;;;4.00;1.40;;;21.30;52.90;;;;;;5001632;28;20095;-66
2023/05/19 02:09:01;;;;;;;2.88;1.40;;;21.30;52.90;;;;;;4999232;28;20125;-65
2023/05/19 02:11:40;;;;;;;3.40;1.63;;;21.30;52.90;;;;;;4992100;28;20030;-65
2023/05/19 02:14:18;;;;;;;2.45;1.48;;;21.30;52.90;;;;;;5005883;28;20223;-67
2023/05/19 02:16:46;;;;;;;2.25;1.40;;;21.30;52.90;;;;;;5000386;28;20038;-66
2023/05/19 02:19:33;;;;;;;2.78;1.70;;;21.30;52.90;;;;;;4996320;28;20033;-65
2023/05/19 02:21:58;;;;;;;2.03;1.30;;;21.30;53.00;;;;;;4999476;28;20471;-66
2023/05/19 02:24:24;;;;;;;1.50;1.40;;;21.30;53.00;;;;;;4998365;28;20026;-67
2023/05/19 02:26:51;;;;;;;2.63;1.58;;;21.20;53.00;;;;;;4998129;28;20409;-67
2023/05/19 02:29:17;;;;;;;2.20;1.50;;;21.20;53.00;;;;;;4996314;28;20042;-66
2023/05/19 02:31:43;;;;;;;2.25;1.42;;;21.20;53.00;;;;;;4998433;28;20034;-66
2023/05/19 02:34:08;;;;;;;1.45;1.30;;;21.20;53.00;;;;;;4996980;28;20068;-66
2023/05/19 02:36:35;;;;;;;2.28;1.45;;;21.20;53.00;;;;;;4997981;28;20044;-66
2023/05/19 02:39:01;;;;;;;2.03;1.27;;;21.20;53.00;;;;;;4999032;28;20092;-66
2023/05/19 02:41:27;;;;;;;1.85;1.63;;;21.20;53.00;;;;;;4999768;28;20042;-68
2023/05/19 02:43:52;;;;;;;1.52;1.30;;;21.20;53.00;;;;;;5001104;28;20373;-68
2023/05/19 02:46:19;;;;;;;2.03;1.20;;;21.20;53.00;;;;;;5001943;28;20378;-66
2023/05/19 02:48:44;;;;;;;2.22;1.30;;;21.20;53.00;;;;;;4999430;28;20519;-67
2023/05/19 02:51:10;;;;;;;1.75;1.30;;;21.20;53.10;;;;;;4999081;28;20132;-67
2023/05/19 02:53:35;;;;;;;3.05;1.60;;;21.20;53.00;;;;;;4999628;28;20378;-67
2023/05/19 02:56:01;;;;;;;2.53;1.42;;;21.20;53.10;;;;;;4998596;28;20080;-68
2023/05/19 02:58:26;;;;;;;2.45;1.20;;;21.20;53.10;;;;;;4997091;28;20505;-67
2023/05/19 03:00:52;;;;;;;1.98;1.58;;;21.20;53.10;;;;;;4996565;28;20038;-66
2023/05/19 03:03:17;;;;;;;2.70;1.63;;;21.20;53.00;;;;;;5000599;28;20174;-68
2023/05/19 03:05:42;;;;;;;1.23;1.13;;;21.20;53.70;;;;;;5000443;28;20049;-66
2023/05/19 03:08:08;;;;;;;2.25;1.42;;;21.10;53.00;;;;;;5002974;28;20023;-67
2023/05/19 03:10:34;;;;;;;1.70;1.50;;;21.10;53.10;;;;;;5001547;28;20030;-66
2023/05/19 03:13:00;;;;;;;3.33;1.50;;;21.10;53.10;;;;;;5003965;28;20029;-67
2023/05/19 03:15:25;;;;;;;2.05;1.48;;;21.10;53.00;;;;;;5004684;28;20110;-68
2023/05/19 03:17:51;;;;;;;2.60;1.45;;;21.10;53.00;;;;;;5010308;28;20037;-66
2023/05/19 03:20:17;;;;;;;2.53;1.50;;;21.10;53.10;;;;;;4999818;28;20493;-66
2023/05/19 03:22:42;;;;;;;2.05;1.40;;;21.10;53.10;;;;;;4998776;28;20628;-64
2023/05/19 03:25:08;;;;;;;1.88;1.42;;;21.10;53.10;;;;;;4997382;28;20030;-68
2023/05/19 03:27:34;;;;;;;1.80;1.50;;;21.10;53.10;;;;;;4998319;28;20540;-68
2023/05/19 03:29:59;;;;;;;3.47;1.40;;;21.10;53.20;;;;;;4994963;28;20031;-66
2023/05/19 03:32:25;;;;;;;2.08;1.42;;;21.10;53.20;;;;;;4998592;28;20052;-65
2023/05/19 03:34:50;;;;;;;2.25;1.55;;;21.10;53.20;;;;;;4997517;28;20030;-65
2023/05/19 03:37:16;;;;;;;2.38;1.40;;;21.10;53.20;;;;;;4998701;28;20512;-67
2023/05/19 03:39:41;;;;;;;2.15;1.30;;;21.10;53.20;;;;;;4996235;28;20030;-67
2023/05/19 03:42:07;;;;;;;3.28;1.05;;;21.10;53.20;;;;;;4996921;28;20113;-66
2023/05/19 03:44:32;;;;;;;2.67;1.50;;;21.10;53.30;;;;;;4996423;28;20034;-68
2023/05/19 03:46:58;;;;;;;2.08;1.60;;;21.00;53.20;;;;;;4998664;28;20030;-67
2023/05/19 03:49:23;;;;;;;2.13;1.30;;;21.00;53.20;;;;;;4996704;28;20034;-67
2023/05/19 03:51:49;;;;;;;2.17;1.45;;;21.00;53.20;;;;;;4996889;28;20038;-67
2023/05/19 03:54:14;;;;;;;2.05;1.17;;;21.00;53.20;;;;;;4996292;28;20042;-67
2023/05/19 03:56:41;;;;;;;2.70;1.70;;;21.00;53.20;;;;;;4997511;28;20518;-66
2023/05/19 03:59:09;;;;;;;2.28;1.60;;;21.00;53.30;;;;;;4996139;28;20042;-67
2023/05/19 04:01:35;;;;;;;2.25;1.50;;;21.00;53.30;;;;;;4998261;28;20544;-67
2023/05/19 04:04:01;;;;;;;2.03;1.27;;;21.00;53.30;;;;;;4997338;28;20030;-65
2023/05/19 04:06:26;;;;;;;1.70;1.30;;;21.00;53.30;;;;;;4998338;28;20248;-66
2023/05/19 04:08:52;;;;;;;2.67;1.27;;;21.00;53.30;;;;;;5011764;28;20448;-67
2023/05/19 04:11:18;;;;;;;2.15;1.23;;;21.00;53.40;;;;;;4998149;28;20040;-67
2023/05/19 04:13:44;;;;;;;3.60;1.77;;;21.00;53.30;;;;;;4999352;28;20028;-67
2023/05/19 04:16:10;;;;;;;2.92;1.33;;;21.00;53.40;;;;;;4999548;28;20116;-67
2023/05/19 04:18:35;;;;;;;3.30;1.60;;;21.00;53.40;;;;;;4998332;28;20097;-65
2023/05/19 04:21:01;;;;;;;2.85;1.58;;;21.00;53.40;;;;;;4998603;28;20038;-66
2023/05/19 04:23:26;;;;;;;2.15;1.05;;;21.00;53.40;;;;;;4997401;28;20338;-67
2023/05/19 04:25:53;;;;;;;2.38;1.40;;;21.00;53.50;;;;;;4992118;28;20079;-67
2023/05/19 04:28:18;;;;;;;1.75;1.35;;;21.00;53.50;;;;;;5006574;28;20079;-65
2023/05/19 04:30:45;;;;;;;3.03;1.40;;;21.00;53.50;;;;;;4997837;28;20021;-67
2023/05/19 04:33:11;;;;;;;2.25;1.52;;;21.00;53.50;;;;;;5011118;28;20019;-64
2023/05/19 04:35:38;;;;;;;1.52;1.30;;;20.90;53.40;;;;;;4997690;28;20388;-67
2023/05/19 04:38:04;;;;;;;2.22;1.30;;;20.90;53.50;;;;;;4993076;28;20042;-67
2023/05/19 04:40:29;;;;;;;2.35;1.30;;;20.90;53.50;;;;;;4993761;28;20088;-66
2023/05/19 04:42:56;;;;;;;3.00;1.48;;;20.90;53.50;;;;;;4997583;28;20030;-64
2023/05/19 04:45:22;;;;;;;1.98;1.30;;;20.90;53.50;;;;;;4997674;28;20034;-66
2023/05/19 04:47:47;;;;;;;1.63;1.30;;;20.90;53.50;;;;;;5000172;28;20042;-61
2023/05/19 04:50:15;;;;;;;4.75;1.52;;;20.90;53.50;;;;;;4996624;28;21016;-67
2023/05/19 04:52:41;;;;;;;1.70;1.52;;;20.90;53.50;;;;;;4999718;28;20080;-65
2023/05/19 04:55:07;;;;;;;2.00;1.17;;;20.90;53.50;;;;;;4995881;28;20910;-66
2023/05/19 04:57:32;;;;;;;2.58;1.33;;;20.90;53.50;;;;;;4998920;28;20042;-67
2023/05/19 05:00:01;;;;;;;2.50;1.30;;;20.90;53.50;;;;;;4995995;28;20096;-67
2023/05/19 05:02:30;;;;;;;2.20;1.38;;;20.90;53.50;;;;;;4998401;28;20126;-67
2023/05/19 05:04:56;;;;;;;2.22;1.50;;;20.90;53.50;;;;;;4997694;28;20034;-67
2023/05/19 05:07:22;;;;;;;2.22;1.45;;;20.90;53.50;;;;;;4995919;28;20026;-66
2023/05/19 05:09:48;;;;;;;3.85;1.75;;;20.90;53.50;;;;;;4997264;28;20524;-63
2023/05/19 05:12:14;;;;;;;3.35;1.55;;;20.90;53.60;;;;;;4992316;28;20142;-67
2023/05/19 05:14:40;;;;;;;2.13;1.50;;;20.90;53.50;;;;;;4997278;28;20092;-67
2023/05/19 05:17:06;;;;;;;2.60;1.45;;;21.00;53.50;;;;;;4997988;28;20046;-64
2023/05/19 05:19:33;;;;;;;2.08;1.27;;;20.90;53.50;;;;;;4994657;28;20034;-66
2023/05/19 05:21:59;;;;;;;2.05;1.42;;;21.00;53.60;;;;;;4998737;28;20034;-66
2023/05/19 05:24:25;;;;;;;3.25;1.50;;;21.00;53.60;;;;;;4996657;28;20033;-66
2023/05/19 05:26:51;;;;;;;1.67;1.50;;;20.90;53.50;;;;;;4997145;28;20025;-67
2023/05/19 05:29:16;;;;;;;2.33;1.48;;;20.90;53.50;;;;;;4997735;28;20492;-62
2023/05/19 05:31:42;;;;;;;2.85;1.50;;;20.90;53.50;;;;;;4996725;28;20034;-67
2023/05/19 05:34:08;;;;;;;2.10;1.30;;;20.90;53.50;;;;;;4998142;28;20451;-67
2023/05/19 05:36:33;;;;;;;2.22;1.85;;;20.90;53.50;;;;;;4994949;28;20037;-67
2023/05/19 05:39:01;;;;;;;3.40;1.67;;;20.90;53.70;;;;;;4995117;28;20030;-67
2023/05/19 05:41:33;;;;;;;2.88;1.27;;;20.90;53.60;;;;;;4996372;28;20030;-61
2023/05/19 05:44:02;;;;;;;4.50;1.60;;;20.90;53.50;;;;;;4997441;28;20534;-66
2023/05/19 05:46:28;;;;;;;1.48;1.33;;;21.00;53.60;;;;;;4996682;28;20401;-65
2023/05/19 05:48:54;;;;;;;2.92;1.15;;;21.00;53.60;;;;;;5000163;28;20030;-66
2023/05/19 05:51:23;;;;;;;1.23;1.08;;;21.00;53.60;;;;;;5002727;28;20053;-67
2023/05/19 05:53:53;;;;;;;2.90;1.50;;;21.10;53.60;;;;;;4998085;28;20037;-71
2023/05/19 05:56:20;;;;;;;1.90;1.35;;;21.10;53.50;;;;;;5000590;28;22388;-64
2023/05/19 05:58:46;;;;;;;1.63;1.17;;;21.10;53.50;;;;;;4999030;28;20030;-68
2023/05/19 06:01:11;;;;;;;1.65;1.33;;;21.10;53.70;;;;;;5000158;28;20397;-70
2023/05/19 06:03:41;;;;;;;3.47;1.70;;;21.10;54.30;;;;;;5000717;28;20523;-69
2023/05/19 06:06:06;;;;;;;2.97;1.25;;;21.10;53.70;;;;;;4998114;28;20072;-68
2023/05/19 06:08:32;;;;;;;1.73;1.42;;;21.10;53.60;;;;;;4998447;28;20433;-67
2023/05/19 06:10:58;;;;;;;2.88;1.92;;;21.20;53.60;;;;;;4999010;28;20033;-65
2023/05/19 06:13:24;;;;;;;2.78;1.30;;;21.20;53.80;;;;;;4999818;28;20057;-67
2023/05/19 06:15:50;;;;;;;1.88;1.40;;;21.20;53.80;;;;;;5001358;28;20030;-66
2023/05/19 06:18:16;;;;;;;2.78;1.50;;;21.20;53.70;;;;;;4999447;28;20034;-61
2023/05/19 06:20:42;;;;;;;4.18;1.42;;;21.20;53.80;;;;;;5001182;28;20096;-68
2023/05/19 06:23:07;;;;;;;3.97;2.17;;;21.20;53.80;;;;;;4997698;28;20415;-61
2023/05/19 06:25:33;;;;;;;7.32;1.60;;;21.20;53.70;;;;;;5001402;28;20036;-68
2023/05/19 06:27:58;;;;;;;5.80;1.40;;;21.20;53.70;;;;;;4998788;28;20107;-63
2023/05/19 06:30:24;;;;;;;6.47;2.30;;;21.20;53.70;;;;;;4999984;28;20042;-68
2023/05/19 06:32:50;;;;;;;4.22;1.50;;;21.20;53.70;;;;;;4997355;28;20092;-67
2023/05/19 06:35:15;;;;;;;13.63;3.00;;;21.20;53.70;;;;;;4999428;28;20030;-67
2023/05/19 06:37:41;;;;;;;4.32;1.80;;;21.20;53.70;;;;;;4997516;28;20037;-67
2023/05/19 06:40:07;;;;;;;4.18;1.50;;;21.20;53.70;;;;;;4997288;28;20322;-65
2023/05/19 06:42:32;;;;;;;5.22;1.60;;;21.20;53.70;;;;;;4998802;28;20041;-67
2023/05/19 06:44:58;;;;;;;4.00;1.30;;;21.20;54.30;;;;;;5000731;28;20448;-68
2023/05/19 06:47:23;;;;;;;2.35;1.50;;;21.20;53.70;;;;;;4999382;28;20029;-69
2023/05/19 06:49:49;;;;;;;9.73;2.15;;;21.20;53.70;;;;;;4995493;28;20040;-70
2023/05/19 06:52:15;;;;;;;7.13;2.20;;;21.20;53.70;;;;;;4998268;28;20057;-66
2023/05/19 06:54:41;;;;;;;5.32;2.03;;;21.20;53.70;;;;;;4997004;28;20034;-68
2023/05/19 06:57:06;;;;;;;4.53;1.50;;;21.20;53.70;;;;;;4998949;28;20597;-65
2023/05/19 06:59:32;;;;;;;4.53;1.40;;;21.20;53.70;;;;;;4999484;28;20029;-62
2023/05/19 07:01:57;;;;;;;2.55;1.40;;;21.10;53.70;;;;;;4997146;28;20033;-62
2023/05/19 07:04:23;;;;;;;4.68;1.60;;;21.10;53.70;;;;;;4997557;28;20037;-71
2023/05/19 07:06:49;;;;;;;3.15;1.90;;;21.10;53.70;;;;;;4997668;28;20030;-71
2023/05/19 07:09:15;;;;;;;4.20;1.38;;;21.10;53.70;;;;;;4995398;28;20385;-69
2023/05/19 07:11:40;;;;;;;5.63;1.83;;;21.10;53.70;;;;;;4998417;28;20065;-69
2023/05/19 07:14:05;;;;;;;2.95;1.35;;;21.10;53.70;;;;;;4999480;28;20030;-65
2023/05/19 07:16:31;;;;;;;2.80;1.42;;;21.10;53.70;;;;;;5000732;28;20136;-67
2023/05/19 07:18:56;;;;;;;5.00;1.90;;;21.10;53.70;;;;;;5000590;28;20340;-67
2023/05/19 07:21:22;;;;;;;5.22;1.83;;;21.10;53.70;;;;;;4999082;28;20026;-67
2023/05/19 07:23:47;;;;;;;3.38;2.03;;;21.10;53.70;;;;;;4997900;28;20025;-66
2023/05/19 07:26:13;;;;;;;2.42;1.23;;;21.10;53.70;;;;;;5002048;28;20030;-68
2023/05/19 07:28:38;;;;;;;2.47;1.55;;;21.10;53.70;;;;;;4998340;28;20066;-68
2023/05/19 07:31:04;;;;;;;3.47;1.60;;;21.10;53.90;;;;;;4996800;28;20027;-69
2023/05/19 07:33:29;;;;;;;3.97;1.92;;;21.10;54.20;;;;;;4996965;28;20508;-71
2023/05/19 07:35:55;;;;;;;5.68;1.92;;;21.10;54.30;;;;;;4995458;28;20325;-69
2023/05/19 07:38:20;;;;;;;9.68;1.88;;;21.10;54.30;;;;;;4993997;28;20025;-70
2023/05/19 07:40:46;;;;;;;4.93;2.10;;;21.00;54.10;;;;;;4999536;28;20054;-66
2023/05/19 07:43:12;;;;;;;17.25;2.00;;;21.00;54.20;;;;;;4999651;28;20096;-68
2023/05/19 07:45:37;;;;;;;6.97;2.13;;;21.00;54.20;;;;;;5001880;28;20554;-69
2023/05/19 07:48:03;;;;;;;5.25;2.22;;;21.10;54.30;;;;;;4999088;28;20069;-67
2023/05/19 07:50:28;;;;;;;7.22;2.20;;;21.00;54.30;;;;;;4997837;28;20026;-69
2023/05/19 07:52:54;;;;;;;6.28;1.98;;;21.10;54.40;;;;;;4979929;28;20030;-70
2023/05/19 07:55:21;;;;;;;5.38;2.08;;;21.00;54.40;;;;;;4997491;28;20540;-70
2023/05/19 07:57:48;;;;;;;8.82;2.03;;;21.10;54.50;;;;;;4997892;28;20041;-69
2023/05/19 08:00:14;;;;;;;9.07;2.20;;;21.00;54.50;;;;;;4997163;28;20117;-69
2023/05/19 08:02:39;;;;;;;5.88;2.10;;;21.00;54.30;;;;;;4994422;28;20125;-65
2023/05/19 08:05:06;;;;;;;7.30;2.22;;;21.00;54.30;;;;;;4995021;28;20034;-69
2023/05/19 08:07:31;;;;;;;11.70;2.28;;;21.00;54.30;;;;;;4992436;28;20042;-66
2023/05/19 08:09:57;;;;;;;3.83;1.58;;;21.00;54.50;;;;;;5001042;28;20034;-67
2023/05/19 08:12:22;;;;;;;4.63;1.65;;;21.00;54.40;;;;;;4997632;28;20054;-65
2023/05/19 08:14:48;;;;;;;4.28;2.13;;;21.00;54.40;;;;;;5000002;28;20656;-67
2023/05/19 08:17:13;;;;;;;6.65;1.92;;;21.00;54.50;;;;;;4998345;28;20042;-70
2023/05/19 08:19:39;;;;;;;6.38;1.52;;;21.00;54.50;;;;;;4999686;28;20061;-68
2023/05/19 08:22:04;;;;;;;3.00;1.63;;;21.00;54.50;;;;;;4998806;28;20049;-65
2023/05/19 08:24:31;;;;;;;4.88;1.50;;;21.00;54.50;;;;;;4998869;28;20586;-69
2023/05/19 08:26:57;;;;;;;4.47;1.85;;;21.00;54.70;;;;;;4997814;28;20525;-69
2023/05/19 08:29:22;;;;;;;5.03;2.70;;;21.00;54.70;;;;;;4999929;28;20133;-66
2023/05/19 08:31:48;;;;;;;6.13;1.88;;;21.00;54.80;;;;;;4994959;28;20076;-69
2023/05/19 08:34:13;;;;;;;4.82;2.10;;;21.00;54.80;;;;;;4997201;28;20054;-69
2023/05/19 08:36:40;;;;;;;3.67;1.90;;;21.00;54.70;;;;;;4992009;28;20034;-69
2023/05/19 08:39:06;;;;;;;4.55;1.98;;;21.00;54.80;;;;;;4999518;28;20029;-71
2023/05/19 08:41:31;;;;;;;5.18;1.77;;;21.00;54.80;;;;;;4999195;28;20038;-70
2023/05/19 08:43:58;;;;;;;5.45;1.75;;;21.00;54.90;;;;;;5001057;28;20032;-71
2023/05/19 08:46:24;;;;;;;4.15;1.67;;;21.00;54.80;;;;;;4997979;28;20057;-67
2023/05/19 08:48:57;;;;;;;2.90;1.70;;;21.00;54.90;;;;;;4992271;28;20045;-69
2023/05/19 08:51:38;;;;;;;3.42;1.55;;;20.90;54.80;;;;;;4997151;28;20022;-69
2023/05/19 08:54:13;;;;;;;2.75;1.42;;;20.90;54.80;;;;;;4997526;28;20581;-66
2023/05/19 08:56:41;;;;;;;3.85;1.80;;;20.90;54.90;;;;;;4994814;28;20490;-70
2023/05/19 08:59:07;;;;;;;3.25;1.70;;;20.90;54.90;;;;;;4994356;28;20253;-66
2023/05/19 09:01:32;;;;;;;3.67;1.65;;;21.00;55.00;;;;;;4994802;28;20026;-67
2023/05/19 09:03:58;;;;;;;3.72;1.52;;;20.90;54.90;;;;;;4994968;28;20026;-67
2023/05/19 09:06:25;;;;;;;3.33;1.42;;;20.90;54.90;;;;;;4991477;28;20031;-67
2023/05/19 09:08:50;;;;;;;3.95;1.58;;;21.00;54.90;;;;;;4997893;28;20030;-67
2023/05/19 09:11:16;;;;;;;3.08;1.63;;;20.90;54.90;;;;;;5000382;28;20049;-67
2023/05/19 09:13:41;;;;;;;3.95;1.63;;;20.90;54.90;;;;;;4999769;28;20404;-64
2023/05/19 09:16:07;;;;;;;2.70;1.40;;;20.90;54.90;;;;;;4994871;28;20049;-65
2023/05/19 09:18:33;;;;;;;4.10;1.88;;;20.90;54.90;;;;;;4998552;28;20029;-67
2023/05/19 09:21:01;;;;;;;3.97;1.95;;;20.90;54.90;;;;;;4998424;28;20049;-69
2023/05/19 09:23:29;;;;;;;3.65;1.60;;;20.90;54.80;;;;;;5004992;28;20027;-68
2023/05/19 09:25:55;;;;;;;2.50;1.30;;;20.90;54.70;;;;;;5002149;28;20077;-68
2023/05/19 09:28:34;;;;;;;4.25;1.33;;;20.90;54.60;;;;;;5001200;28;20033;-67
2023/05/19 09:31:05;;;;;;;2.67;1.70;;;20.80;54.60;;;;;;4999009;28;20359;-68
2023/05/19 09:33:36;;;;;;;2.17;1.40;;;20.80;54.50;;;;;;4998786;28;20045;-62
2023/05/19 09:36:04;;;;;;;5.32;1.52;;;20.80;54.40;;;;;;4998741;28;20030;-68
2023/05/19 09:38:30;;;;;;;2.40;1.50;;;20.80;54.30;;;;;;5001297;28;20030;-64
2023/05/19 09:40:57;;;;;;;2.10;1.73;;;20.80;54.30;;;;;;5003300;28;20354;-60
2023/05/19 09:43:22;;;;;;;2.17;1.30;;;20.90;54.10;;;;;;5001516;28;20038;-68
2023/05/19 09:45:53;;;;;;;2.80;1.40;;;20.80;54.20;;;;;;5001964;28;20049;-66
2023/05/19 09:48:19;;;;;;;3.38;1.50;;;20.80;54.20;;;;;;5000328;28;20165;-67
2023/05/19 09:50:45;;;;;;;3.15;1.50;;;20.80;54.20;;;;;;4999751;28;20121;-64
2023/05/19 09:53:16;;;;;;;3.25;1.48;;;20.80;54.10;;;;;;4999268;28;20037;-67
2023/05/19 09:55:41;;;;;;;1.88;1.15;;;20.80;54.10;;;;;;4996845;28;20112;-67
2023/05/19 09:58:07;;;;;;;2.53;1.60;;;20.80;54.00;;;;;;4996822;28;20462;-66
2023/05/19 10:00:33;;;;;;;2.08;1.50;;;20.80;54.00;;;;;;4997062;28;20536;-67
2023/05/19 10:02:59;;;;;;;5.28;1.52;;;20.80;54.10;;;;;;4995597;28;20080;-66
2023/05/19 10:05:27;;;;;;;3.60;1.50;;;20.80;54.00;;;;;;5012018;28;20038;-67
2023/05/19 10:07:54;;;;;;;3.60;1.50;;;20.80;54.10;;;;;;5000917;28;20083;-67
2023/05/19 10:10:20;;;;;;;4.57;1.70;;;20.80;53.90;;;;;;5001344;28;20034;-68
2023/05/19 10:12:47;;;;;;;3.65;1.83;;;20.80;53.90;;;;;;5001483;28;20030;-68
2023/05/19 10:15:17;;;;;;;3.70;1.48;;;20.80;54.00;;;;;;4999885;28;20026;-68
2023/05/19 10:17:43;;;;;;;1.90;1.45;;;20.80;54.00;;;;;;4998809;28;20030;-65
2023/05/19 10:20:14;;;;;;;1.90;1.38;;;20.70;54.10;;;;;;4998573;28;20078;-67
2023/05/19 10:22:41;;;;;;;3.13;1.75;;;20.80;54.20;;;;;;4998921;28;20033;-67
2023/05/19 10:25:08;;;;;;;2.13;1.48;;;20.70;54.80;;;;;;5016827;23;20117;-65
2023/05/19 10:27:42;;;;;;;2.53;2.08;;;20.70;54.30;;;;;;4995089;28;20686;-67
2023/05/19 10:30:13;;;;;;;3.97;2.05;;;20.70;54.30;;;;;;4997818;28;20506;-69
2023/05/19 10:32:43;;;;;;;2.92;1.70;;;20.70;54.40;;;;;;4995605;28;20096;-66
2023/05/19 10:35:30;;;;;;;2.30;1.88;;;20.70;54.40;;;;;;4998852;28;20049;-65
2023/05/19 10:38:15;;;;;;;2.10;1.45;;;20.70;54.50;;;;;;4999263;28;20540;-66
2023/05/19 10:40:56;;;;;;;2.55;1.70;;;20.70;54.50;;;;;;5000366;28;20029;-67
2023/05/19 10:43:38;;;;;;;3.88;1.60;;;20.70;54.60;;;;;;4999043;28;20436;-68
2023/05/19 10:46:05;;;;;;;3.63;1.80;;;20.70;54.60;;;;;;5000245;28;20111;-66
2023/05/19 10:48:34;;;;;;;6.22;1.63;;;20.60;54.60;;;;;;4999675;28;20029;-66
2023/05/19 10:51:01;;;;;;;2.83;1.38;;;20.70;54.70;;;;;;5001021;28;20543;-69
2023/05/19 10:53:33;;;;;;;1.73;1.40;;;20.70;54.70;;;;;;4997002;28;20030;-65
2023/05/19 10:56:05;;;;;;;1.85;1.30;;;20.60;54.60;;;;;;4994643;28;20440;-68
2023/05/19 10:58:43;;;;;;;2.65;1.73;;;20.70;54.70;;;;;;4993453;28;20088;-67
2023/05/19 11:01:20;;;;;;;3.75;1.20;;;20.60;54.70;;;;;;4996155;28;20069;-68
2023/05/19 11:03:47;;;;;;;4.72;1.50;;;20.60;54.80;;;;;;4996394;28;20494;-68
2023/05/19 11:06:30;;;;;;;2.50;1.38;;;20.60;54.80;;;;;;5000983;28;20026;-66
2023/05/19 11:09:13;;;;;;;5.50;1.90;;;20.60;54.90;;;;;;4997984;28;20392;-67
2023/05/19 11:11:50;;;;;;;4.78;1.98;;;20.60;54.90;;;;;;5000076;28;20026;-71
2023/05/19 11:14:25;;;;;;;3.28;1.80;;;20.60;54.90;;;;;;4997040;28;20030;-68
2023/05/19 11:16:52;;;;;;;1.92;1.63;;;20.60;54.90;;;;;;5014472;28;20041;-66
2023/05/19 11:19:27;;;;;;;3.10;2.25;;;20.60;55.00;;;;;;4998368;28;20064;-67
2023/05/19 11:21:56;;;;;;;;;;;20.60;55.00;;;;;;4996530;28;20883;-68
2023/05/19 11:24:37;;;;;;;2.70;2.28;;;20.60;55.00;;;;;;4995833;28;20011;-68
2023/05/19 11:27:23;;;;;;;5.03;2.83;;;20.60;55.00;;;;;;4996670;28;20045;-68
2023/05/19 11:29:49;;;;;;;4.47;2.50;;;20.60;55.00;;;;;;4995983;28;20026;-70
2023/05/19 11:32:15;;;;;;;3.50;2.85;;;20.60;55.00;;;;;;4993211;28;20125;-68
2023/05/19 11:34:42;;;;;;;4.03;2.42;;;20.60;55.00;;;;;;5001794;28;20109;-69
2023/05/19 11:37:08;;;;;;;5.47;3.40;;;20.60;55.10;;;;;;5000805;28;20460;-67
2023/05/19 11:39:34;;;;;;;5.57;3.55;;;20.60;55.10;;;;;;4998553;28;20050;-67
2023/05/19 11:41:59;;;;;;;7.50;4.25;;;20.60;55.10;;;;;;5000038;28;20026;-71
2023/05/19 11:44:25;;;;;;;7.30;4.60;;;20.60;55.20;;;;;;5000260;28;20125;-70
2023/05/19 11:46:50;;;;;;;7.72;4.20;;;20.60;55.10;;;;;;5000442;28;20041;-68
2023/05/19 11:49:16;;;;;;;7.72;4.07;;;20.60;55.20;;;;;;5009326;28;20118;-68
2023/05/19 11:51:42;;;;;;;10.02;4.72;;;20.60;55.10;;;;;;4996790;28;20057;-68
2023/05/19 11:54:10;;;;;;;7.07;4.68;;;20.60;55.10;;;;;;4989169;28;20034;-67
2023/05/19 11:56:40;;;;;;;7.57;4.60;;;20.60;55.20;;;;;;4994415;28;20033;-66
2023/05/19 11:59:05;;;;;;;7.28;5.50;;;20.60;55.30;;;;;;5011452;28;20056;-66
2023/05/19 12:01:32;;;;;;;8.02;5.75;;;20.60;55.20;;;;;;4992977;28;20485;-66
2023/05/19 12:03:58;;;;;;;7.40;5.13;;;20.60;55.20;;;;;;4998550;28;20030;-66
2023/05/19 12:06:25;;;;;;;9.30;5.50;;;20.60;55.30;;;;;;4997484;28;20738;-66
2023/05/19 12:08:51;;;;;;;9.30;5.85;;;20.60;55.30;;;;;;5000171;28;20077;-66
2023/05/19 12:11:17;;;;;;;9.02;5.78;;;20.60;55.30;;;;;;4997433;28;20037;-66
2023/05/19 12:13:43;;;;;;;8.27;4.85;;;20.50;55.30;;;;;;4999166;28;20040;-67
2023/05/19 12:16:09;;;;;;;8.75;6.07;;;20.60;55.40;;;;;;4997060;28;20026;-66
2023/05/19 12:18:39;;;;;;;7.55;5.18;;;20.60;55.40;;;;;;4995293;28;20057;-66
2023/05/19 12:21:05;;;;;;;6.90;4.90;;;20.60;55.40;;;;;;4993710;28;20068;-66
2023/05/19 12:23:31;;;;;;;7.07;4.70;;;20.60;56.00;;;;;;4993923;28;20034;-66
2023/05/19 12:25:58;;;;;;;7.13;5.03;;;20.60;55.50;;;;;;4993258;28;20493;-67
2023/05/19 12:28:23;;;;;;;7.95;5.50;;;20.60;55.50;;;;;;4993831;28;20555;-67
2023/05/19 12:30:51;;;;;;;7.63;4.47;;;20.50;55.40;;;;;;4993286;28;20025;-69
2023/05/19 12:33:18;;;;;;;6.95;4.75;;;20.50;55.40;;;;;;5000245;28;20048;-68
2023/05/19 12:35:44;;;;;;;7.57;4.78;;;20.50;55.40;;;;;;4999606;28;20037;-68
2023/05/19 12:38:10;;;;;;;5.57;4.03;;;20.50;55.50;;;;;;4998146;28;20517;-69
2023/05/19 12:40:38;;;;;;;6.25;4.50;;;20.50;55.40;;;;;;4996981;28;20042;-69
2023/05/19 12:43:04;;;;;;;7.70;4.97;;;20.50;55.40;;;;;;4997790;28;20450;-68
2023/05/19 12:45:36;;;;;;;6.35;3.95;;;20.50;55.50;;;;;;4996308;28;20357;-67
2023/05/19 12:48:04;;;;;;;4.88;3.75;;;20.50;55.40;;;;;;4996106;28;20030;-69
2023/05/19 12:50:30;;;;;;;6.35;4.15;;;20.50;55.50;;;;;;4993968;28;20454;-68